Home   Weather   Spain   Sant Antoni de Portmany   Past weeks
Flag for Spain

Past Weather in Sant Antoni de Portmany, Ibiza, Spain — Yesterday and Last 2 Weeks

Currently: 81 °F. Passing clouds. (Weather station: Ibiza / Es Codola, Spain). See more current weather

Past Weather in Sant Antoni de Portmany — Graph

°F

Sant Antoni de Portmany Temperature Yesterday

Maximum temperature yesterday: 81 °F (at 3:00 pm)
Minimum temperature yesterday: 70 °F (at 1:00 am)
Average temperature yesterday: 74 °F

High & Low Weather Summary for the Past Weeks

 TemperatureHumidityPressure
High84 °F (Jun 14, 2:30 pm)100% (Jun 8, 7:00 am)30.18 "Hg (Jun 8, 7:00 am)
Low63 °F (Jun 9, 5:30 am)37% (Jun 12, 2:30 pm)29.77 "Hg (Jun 16, 9:00 pm)
Average74 °F71%29.98 "Hg
* Reported Jun 7 11:00 am — Jun 22 11:00 am, Sant Antoni de Portmany. Weather by CustomWeather, © 2021

Note: Actual official high and low records may vary slightly from our data, if they occured in-between our weather recording intervals... More about our weather records

Sant Antoni de Portmany Weather History for the Previous 24 Hours

Scroll right to see more
 ConditionsComfort  
Time TempWeatherWind HumidityBarometerVisibility
11:00 am
Tue, Jun 22
79 °FPassing clouds.10 mph65%29.89 "HgN/A
10:30 am79 °FPassing clouds.8 mph65%29.89 "HgN/A
10:00 am79 °FPassing clouds.6 mph58%29.89 "HgN/A
9:30 am79 °FSunny.8 mph54%29.89 "Hg10 mi
9:00 am79 °FPassing clouds.6 mph54%29.89 "HgN/A
8:30 am75 °FSunny.1 mph65%29.89 "Hg10 mi
8:00 am72 °FSunny.No wind78%29.86 "Hg10 mi
7:30 am70 °FPassing clouds.3 mph78%29.86 "HgN/A
7:00 am68 °FSunny.2 mph83%29.86 "Hg10 mi
6:30 am70 °FPassing clouds.3 mph73%29.86 "HgN/A
6:00 am70 °FPassing clouds.3 mph78%29.83 "HgN/A
5:30 am68 °FPassing clouds.5 mph94%29.83 "HgN/A
5:00 am68 °FClear.5 mph94%29.83 "Hg10 mi
4:30 am68 °FClear.7 mph94%29.83 "Hg10 mi
4:00 am70 °FClear.8 mph88%29.83 "Hg10 mi
3:30 am70 °FClear.8 mph88%29.83 "Hg10 mi
3:00 am70 °FPassing clouds.6 mph88%29.83 "HgN/A
2:30 am70 °FPassing clouds.6 mph88%29.86 "HgN/A
2:00 am70 °FClear.6 mph88%29.86 "Hg10 mi
1:30 am70 °FPassing clouds.6 mph88%29.86 "HgN/A
1:00 am70 °FPassing clouds.6 mph88%29.86 "HgN/A
12:30 am72 °FPassing clouds.6 mph83%29.86 "HgN/A
12:00 am72 °FPassing clouds.6 mph83%29.86 "HgN/A
11:30 pm
Mon, Jun 21
72 °FPassing clouds.7 mph83%29.86 "HgN/A
11:00 pm72 °FPassing clouds.5 mph83%29.86 "HgN/A
10:30 pm72 °FPassing clouds.7 mph83%29.83 "HgN/A
10:00 pm72 °FPassing clouds.8 mph83%29.83 "HgN/A
9:30 pm73 °FPassing clouds.9 mph83%29.83 "HgN/A
9:00 pm73 °FPassing clouds.7 mph83%29.83 "HgN/A
8:30 pm73 °FPassing clouds.8 mph78%29.83 "HgN/A
8:00 pm75 °FPassing clouds.8 mph74%29.80 "HgN/A
7:30 pm77 °FPassing clouds.8 mph69%29.80 "HgN/A
7:00 pm75 °FPassing clouds.10 mph74%29.80 "HgN/A
6:30 pm77 °FPassing clouds.9 mph69%29.80 "HgN/A
6:00 pm77 °FPassing clouds.10 mph69%29.80 "HgN/A
5:30 pm77 °FPassing clouds.12 mph69%29.83 "HgN/A
5:00 pm77 °FPassing clouds.13 mph69%29.83 "HgN/A
4:30 pm79 °FPassing clouds.13 mph65%29.83 "HgN/A
4:00 pm79 °FPassing clouds.13 mph65%29.83 "HgN/A
3:30 pm79 °FPassing clouds.14 mph65%29.83 "HgN/A
3:00 pm81 °FPassing clouds.14 mph66%29.83 "HgN/A
2:30 pm79 °FPassing clouds.15 mph70%29.83 "HgN/A
2:00 pm79 °FPassing clouds.14 mph70%29.83 "HgN/A
1:30 pm77 °FPassing clouds.15 mph74%29.83 "HgN/A
1:00 pm79 °FPassing clouds.14 mph70%29.83 "HgN/A
12:30 pm77 °FPassing clouds.14 mph74%29.83 "HgN/A
12:00 pm77 °FPassing clouds.14 mph74%29.83 "HgN/A
Weather by CustomWeather, © 2021

See weather overview